Time;durP1;ratioP1;P1;durP2;ratioP2;P2;SDS_P1;SDS_P2;PMS_P1;PMS_P2;Temp;Humidity;BMP_temperature;BMP_pressure;BME280_temperature;BME280_humidity;BME280_pressure;Samples;Min_cycle;Max_cycle;Signal;HPM_P1;HPM_P2
2022/05/14 00:01:59;;;;;;;10.27;2.90;;;;;;;;;;4998217;28;96806;-73
2022/05/14 00:04:26;;;;;;;13.02;3.30;;;;;;;;;;4991342;28;96507;-73
2022/05/14 00:06:52;;;;;;;11.65;3.00;;;;;;;;;;4991819;28;95443;-73
2022/05/14 00:09:18;;;;;;;16.38;3.75;;;;;;;;;;5005897;28;96917;-73
2022/05/14 00:14:29;;;;;;;9.93;3.50;;;;;;;;;;5014867;28;96756;-73
2022/05/14 00:16:55;;;;;;;13.73;3.25;;;;;;;;;;5015148;28;97487;-74
2022/05/14 00:19:22;;;;;;;12.25;3.20;;;;;;;;;;5014330;28;95986;-73
2022/05/14 00:21:48;;;;;;;12.68;3.60;;;;;;;;;;5002982;28;96741;-73
2022/05/14 00:24:16;;;;;;;17.95;3.58;;;;;;;;;;5043052;27;97408;-73
2022/05/14 00:26:42;;;;;;;14.98;3.72;;;;;;;;;;5015371;28;95329;-74
2022/05/14 00:29:09;;;;;;;15.45;3.78;;;;;;;;;;5014545;28;96784;-74
2022/05/14 00:31:36;;;;;;;14.50;3.20;;;;;;;;;;5011167;28;97247;-74
2022/05/14 00:34:03;;;;;;;14.85;4.35;;;;;;;;;;4995177;28;95632;-74
2022/05/14 00:36:29;;;;;;;17.73;3.50;;;;;;;;;;4994134;28;97794;-74
2022/05/14 00:38:56;;;;;;;14.50;3.90;;;;;;;;;;4998117;28;95226;-74
2022/05/14 00:41:23;;;;;;;23.50;4.00;;;;;;;;;;5013772;28;96726;-73
2022/05/14 00:43:51;;;;;;;14.43;3.90;;;;;;;;;;5013385;28;97251;-73
2022/05/14 00:46:18;;;;;;;14.73;3.63;;;;;;;;;;5014507;28;95386;-74
2022/05/14 00:48:46;;;;;;;15.73;3.78;;;;;;;;;;5014444;28;96695;-73
2022/05/14 00:51:15;;;;;;;14.95;3.47;;;;;;;;;;5013951;28;97536;-74
2022/05/14 00:53:47;;;;;;;13.02;3.30;;;;;;;;;;5018380;28;95199;-73
2022/05/14 00:56:15;;;;;;;15.68;3.65;;;;;;;;;;5014463;28;97381;-74
2022/05/14 00:58:41;;;;;;;16.20;3.70;;;;;;;;;;5014588;28;95353;-73
2022/05/14 01:01:08;;;;;;;13.73;4.25;;;;;;;;;;4998916;28;96878;-73
2022/05/14 01:03:34;;;;;;;14.02;3.70;;;;;;;;;;4993748;28;97683;-74
2022/05/14 01:06:03;;;;;;;18.63;3.83;;;;;;;;;;4995038;28;95323;-73
2022/05/14 01:08:29;;;;;;;10.40;3.70;;;;;;;;;;4994467;28;96487;-73
2022/05/14 01:10:56;;;;;;;15.82;4.00;;;;;;;;;;5008689;28;97166;-73
2022/05/14 01:13:23;;;;;;;19.35;4.38;;;;;;;;;;5014504;28;95217;-75
2022/05/14 01:15:51;;;;;;;14.90;3.80;;;;;;;;;;5017355;28;96069;-73
2022/05/14 01:18:19;;;;;;;13.00;3.63;;;;;;;;;;5013701;28;95557;-73
2022/05/14 01:20:52;;;;;;;15.35;3.72;;;;;;;;;;5004087;28;95741;-74
2022/05/14 01:23:18;;;;;;;;;;;;;;;;;;4994468;28;97280;-74
2022/05/14 01:28:35;;;;;;;13.80;3.53;;;;;;;;;;4994315;28;97127;-74
2022/05/14 01:31:03;;;;;;;11.02;3.63;;;;;;;;;;5005633;28;97289;-74
2022/05/14 01:33:30;;;;;;;12.25;3.60;;;;;;;;;;5014666;28;96014;-73
2022/05/14 01:35:57;;;;;;;16.58;3.95;;;;;;;;;;5014634;28;96992;-73
2022/05/14 01:38:23;;;;;;;11.85;3.85;;;;;;;;;;5016333;28;97278;-73
2022/05/14 01:40:49;;;;;;;18.25;4.30;;;;;;;;;;5007492;28;96587;-73
2022/05/14 01:43:16;;;;;;;19.52;4.18;;;;;;;;;;4993851;28;95268;-73
2022/05/14 01:45:42;;;;;;;18.65;4.38;;;;;;;;;;4992613;28;95313;-74
2022/05/14 01:48:09;;;;;;;24.20;4.32;;;;;;;;;;4994030;28;97018;-73
2022/05/14 01:50:35;;;;;;;15.52;4.03;;;;;;;;;;5000707;28;97396;-73
2022/05/14 01:53:04;;;;;;;15.35;4.30;;;;;;;;;;5013616;28;95040;-74
2022/05/14 01:55:30;;;;;;;18.48;4.18;;;;;;;;;;5013812;28;96852;-73
2022/05/14 01:57:56;;;;;;;11.85;4.05;;;;;;;;;;5016820;28;97380;-73
2022/05/14 02:00:23;;;;;;;13.75;3.95;;;;;;;;;;5011869;28;97033;-74
2022/05/14 02:02:50;;;;;;;14.68;3.70;;;;;;;;;;5015722;28;96417;-73
2022/05/14 02:05:17;;;;;;;17.13;5.03;;;;;;;;;;5013893;28;95349;-73
2022/05/14 02:07:44;;;;;;;14.00;4.72;;;;;;;;;;5013463;28;96903;-73
2022/05/14 02:10:10;;;;;;;14.13;4.10;;;;;;;;;;5012199;28;97698;-73
2022/05/14 02:12:37;;;;;;;13.93;4.55;;;;;;;;;;4993392;28;95493;-73
2022/05/14 02:15:03;;;;;;;13.02;4.28;;;;;;;;;;4993088;28;96893;-72
2022/05/14 02:17:30;;;;;;;13.18;4.05;;;;;;;;;;4992885;28;97338;-74
2022/05/14 02:19:56;;;;;;;12.63;3.80;;;;;;;;;;5001247;28;95302;-73
2022/05/14 02:22:23;;;;;;;12.45;3.67;;;;;;;;;;5012342;28;97436;-73
2022/05/14 02:24:49;;;;;;;12.82;3.88;;;;;;;;;;5013688;28;95366;-73
2022/05/14 02:27:15;;;;;;;16.88;4.55;;;;;;;;;;5012069;28;96607;-74
2022/05/14 02:29:50;;;;;;;12.02;3.97;;;;;;;;;;5013164;28;97216;-74
2022/05/14 02:32:22;;;;;;;15.82;4.35;;;;;;;;;;5011740;28;95275;-74
2022/05/14 02:34:48;;;;;;;10.88;3.70;;;;;;;;;;5012416;28;96890;-73
2022/05/14 02:37:14;;;;;;;14.15;4.35;;;;;;;;;;5012802;28;97730;-74
2022/05/14 02:39:41;;;;;;;17.58;4.75;;;;;;;;;;5012775;28;95462;-74
2022/05/14 02:42:07;;;;;;;18.48;4.78;;;;;;;;;;5015701;28;96318;-74
2022/05/14 02:44:34;;;;;;;19.00;4.50;;;;;;;;;;5013086;28;95270;-74
2022/05/14 02:47:00;;;;;;;14.60;4.70;;;;;;;;;;5013445;28;96778;-74
2022/05/14 02:49:27;;;;;;;15.18;5.30;;;;;;;;;;5011318;28;96878;-74
2022/05/14 02:51:53;;;;;;;16.83;5.18;;;;;;;;;;5012830;28;95563;-73
2022/05/14 02:54:19;;;;;;;16.73;5.30;;;;;;;;;;5013119;28;96399;-74
2022/05/14 02:56:46;;;;;;;18.95;4.65;;;;;;;;;;5012269;28;97297;-73
2022/05/14 02:59:12;;;;;;;17.20;5.60;;;;;;;;;;5012219;28;95949;-73
2022/05/14 03:01:47;;;;;;;16.10;5.03;;;;;;;;;;5012192;28;96835;-74
2022/05/14 03:04:16;;;;;;;15.93;5.20;;;;;;;;;;5015534;28;97345;-73
2022/05/14 03:06:42;;;;;;;17.52;5.65;;;;;;;;;;5012966;28;96806;-73
2022/05/14 03:09:08;;;;;;;19.40;5.65;;;;;;;;;;5011855;28;97424;-73
2022/05/14 03:11:35;;;;;;;19.10;6.10;;;;;;;;;;5012198;28;96206;-73
2022/05/14 03:14:01;;;;;;;17.27;5.50;;;;;;;;;;5012474;28;96448;-74
2022/05/14 03:16:28;;;;;;;20.63;5.68;;;;;;;;;;5011902;28;97311;-74
2022/05/14 03:18:55;;;;;;;15.27;5.35;;;;;;;;;;5012531;28;96882;-73
2022/05/14 03:21:21;;;;;;;20.70;6.10;;;;;;;;;;5012456;28;96621;-73
2022/05/14 03:23:47;;;;;;;21.95;5.68;;;;;;;;;;5011889;28;97339;-74
2022/05/14 03:26:14;;;;;;;19.98;6.03;;;;;;;;;;5015164;28;95381;-73
2022/05/14 03:28:40;;;;;;;20.08;6.57;;;;;;;;;;5008296;28;96319;-73
2022/05/14 03:31:06;;;;;;;24.15;5.95;;;;;;;;;;4991800;28;95337;-74
2022/05/14 03:33:33;;;;;;;22.23;6.18;;;;;;;;;;5004438;28;96849;-74
2022/05/14 03:36:00;;;;;;;21.63;6.18;;;;;;;;;;5011744;28;97420;-74
2022/05/14 03:38:26;;;;;;;15.25;6.78;;;;;;;;;;4992193;28;95192;-73
2022/05/14 03:40:52;;;;;;;20.02;6.70;;;;;;;;;;4992300;28;96861;-73
2022/05/14 03:43:18;;;;;;;21.60;6.53;;;;;;;;;;5000562;28;97295;-73
2022/05/14 03:45:45;;;;;;;24.73;6.10;;;;;;;;;;5012391;28;95749;-74
2022/05/14 03:48:11;;;;;;;19.42;7.32;;;;;;;;;;5016863;28;96691;-74
2022/05/14 03:50:37;;;;;;;20.20;7.55;;;;;;;;;;5015349;28;95458;-74
2022/05/14 03:53:04;;;;;;;21.63;7.93;;;;;;;;;;5015219;28;96817;-74
2022/05/14 03:55:30;;;;;;;24.63;7.50;;;;;;;;;;5014927;28;96516;-74
2022/05/14 03:57:56;;;;;;;26.13;6.88;;;;;;;;;;5015543;28;95434;-73
2022/05/14 04:00:22;;;;;;;25.13;7.63;;;;;;;;;;5015007;28;97216;-74
2022/05/14 04:02:49;;;;;;;18.88;7.47;;;;;;;;;;5013893;28;97495;-73
2022/05/14 04:05:15;;;;;;;20.70;8.43;;;;;;;;;;5013452;28;95417;-74
2022/05/14 04:07:43;;;;;;;14.77;7.03;;;;;;;;;;4998144;28;96920;-73
2022/05/14 04:10:12;;;;;;;18.23;7.90;;;;;;;;;;4995522;28;95380;-75
2022/05/14 04:12:38;;;;;;;25.10;7.65;;;;;;;;;;4994873;28;96940;-74
2022/05/14 04:15:05;;;;;;;26.30;8.90;;;;;;;;;;5015030;28;97433;-74
2022/05/14 04:17:31;;;;;;;30.45;9.52;;;;;;;;;;5013435;28;95344;-72
2022/05/14 04:19:58;;;;;;;22.60;8.55;;;;;;;;;;4994679;28;97221;-73
2022/05/14 04:22:24;;;;;;;21.65;8.88;;;;;;;;;;4994937;28;97373;-73
2022/05/14 04:24:50;;;;;;;23.85;9.07;;;;;;;;;;5011102;28;95368;-73
2022/05/14 04:27:17;;;;;;;28.63;8.85;;;;;;;;;;5014217;28;95923;-73
2022/05/14 04:29:43;;;;;;;24.13;9.32;;;;;;;;;;5014403;28;97317;-75
2022/05/14 04:32:09;;;;;;;24.70;9.38;;;;;;;;;;5015329;28;96751;-73
2022/05/14 19:32:32;;;;;;;22.77;5.28;;;;;;;;;;5068280;27;1278525;-74
2022/05/14 19:34:58;;;;;;;25.25;6.35;;;;;;;;;;5088938;27;97340;-74
2022/05/14 19:37:27;;;;;;;24.95;5.80;;;;;;;;;;5084209;27;96763;-74
2022/05/14 19:39:56;;;;;;;25.52;6.13;;;;;;;;;;5087670;27;96981;-77
2022/05/14 19:42:28;;;;;;;27.50;6.65;;;;;;;;;;5074172;27;96288;-77
2022/05/14 19:45:00;;;;;;;26.02;6.32;;;;;;;;;;5072747;27;96691;-77
2022/05/14 19:47:28;;;;;;;27.08;5.90;;;;;;;;;;5083495;27;96497;-77
2022/05/14 19:49:55;;;;;;;17.92;5.80;;;;;;;;;;5088042;27;97717;-76
2022/05/14 19:52:23;;;;;;;27.20;6.53;;;;;;;;;;5090132;27;95752;-75
2022/05/14 19:54:49;;;;;;;32.58;6.60;;;;;;;;;;5082306;27;97283;-76
2022/05/14 19:57:16;;;;;;;24.63;6.00;;;;;;;;;;5081762;27;95251;-76
2022/05/14 19:59:42;;;;;;;25.85;6.22;;;;;;;;;;5085652;27;96858;-76
2022/05/14 20:02:08;;;;;;;23.40;6.57;;;;;;;;;;5088264;27;97437;-77
2022/05/14 20:04:35;;;;;;;22.58;6.28;;;;;;;;;;5085908;27;96655;-76
2022/05/14 20:07:03;;;;;;;27.90;6.53;;;;;;;;;;5068577;27;96953;-76
2022/05/14 20:09:30;;;;;;;25.23;5.88;;;;;;;;;;5084298;27;96648;-74
2022/05/14 20:11:56;;;;;;;31.73;6.70;;;;;;;;;;5088830;27;95207;-74
2022/05/14 20:14:23;;;;;;;32.17;6.63;;;;;;;;;;5087299;27;96725;-76
2022/05/14 20:22:20;;;;;;;27.75;6.85;;;;;;;;;;5088886;27;96461;-75
2022/05/14 20:24:46;;;;;;;35.20;8.45;;;;;;;;;;5088526;27;95486;-75
2022/05/14 20:27:13;;;;;;;21.85;6.43;;;;;;;;;;5088788;27;96793;-77
2022/05/14 20:29:40;;;;;;;22.77;5.82;;;;;;;;;;5079124;27;97292;-76
2022/05/14 20:32:07;;;;;;;25.60;7.15;;;;;;;;;;5071930;27;97185;-76
2022/05/14 20:34:33;;;;;;;26.85;6.93;;;;;;;;;;5075846;27;96709;-76
2022/05/14 20:36:59;;;;;;;27.15;7.20;;;;;;;;;;5090220;27;97633;-76
2022/05/14 20:39:26;;;;;;;31.35;6.75;;;;;;;;;;5088174;27;96993;-76
2022/05/14 20:41:52;;;;;;;28.55;6.20;;;;;;;;;;5084586;27;97524;-75
2022/05/14 20:44:18;;;;;;;30.70;7.38;;;;;;;;;;5074056;27;95320;-77
2022/05/14 20:46:45;;;;;;;24.40;6.45;;;;;;;;;;5076137;27;97005;-76
2022/05/14 20:49:11;;;;;;;25.52;6.72;;;;;;;;;;5074276;27;96322;-76
2022/05/14 20:51:38;;;;;;;30.80;7.72;;;;;;;;;;5074278;27;95527;-76
2022/05/14 20:54:05;;;;;;;24.52;6.90;;;;;;;;;;5074051;27;96931;-76
2022/05/14 20:56:32;;;;;;;27.60;7.90;;;;;;;;;;5073855;27;97697;-76
2022/05/14 20:58:59;;;;;;;23.48;6.72;;;;;;;;;;5074097;27;95791;-74
2022/05/14 21:01:25;;;;;;;26.13;7.03;;;;;;;;;;5073247;27;97840;-74
2022/05/14 21:03:52;;;;;;;25.95;6.88;;;;;;;;;;5064059;27;95476;-76
2022/05/14 21:06:18;;;;;;;30.45;6.57;;;;;;;;;;5073451;27;97074;-75
2022/05/14 21:08:45;;;;;;;26.52;7.38;;;;;;;;;;5074410;27;97371;-76
2022/05/14 21:11:18;;;;;;;23.10;7.13;;;;;;;;;;5072052;27;95361;-75
2022/05/14 21:13:45;;;;;;;23.70;6.43;;;;;;;;;;5075710;27;96777;-76
2022/05/14 21:16:12;;;;;;;26.75;7.63;;;;;;;;;;5075521;27;97659;-75
2022/05/14 21:18:39;;;;;;;27.88;7.43;;;;;;;;;;5069523;27;96352;-75
2022/05/14 21:21:05;;;;;;;30.65;7.07;;;;;;;;;;5076498;27;95830;-75
2022/05/14 21:23:32;;;;;;;23.65;7.03;;;;;;;;;;5073965;27;95157;-75
2022/05/14 21:25:58;;;;;;;28.33;7.30;;;;;;;;;;5075083;27;96725;-76
2022/05/14 21:28:24;;;;;;;26.38;7.07;;;;;;;;;;5073835;27;97405;-75
2022/05/14 21:30:52;;;;;;;33.58;7.63;;;;;;;;;;5073106;27;95146;-76
2022/05/14 21:33:19;;;;;;;38.28;8.30;;;;;;;;;;5074241;27;96584;-74
2022/05/14 21:38:30;;;;;;;27.98;7.43;;;;;;;;;;5074978;27;95244;-74
2022/05/14 21:40:56;;;;;;;25.80;7.35;;;;;;;;;;5073400;27;96783;-77
2022/05/14 21:43:23;;;;;;;31.40;7.70;;;;;;;;;;5077887;27;95273;-76
2022/05/14 21:45:51;;;;;;;27.08;7.68;;;;;;;;;;5072905;27;96844;-77
2022/05/14 21:48:18;;;;;;;29.13;8.18;;;;;;;;;;5086962;27;97697;-76
2022/05/14 21:50:45;;;;;;;35.53;9.23;;;;;;;;;;5080016;27;95315;-77
2022/05/14 21:53:13;;;;;;;28.10;8.63;;;;;;;;;;5073546;27;97351;-76
2022/05/14 21:55:43;;;;;;;31.23;8.02;;;;;;;;;;5072688;27;98149;-76
2022/05/14 21:58:09;;;;;;;36.78;8.32;;;;;;;;;;5075283;27;95394;-77
2022/05/14 22:00:36;;;;;;;26.98;6.60;;;;;;;;;;5072361;27;98520;-74
2022/05/14 22:03:07;;;;;;;23.42;7.35;;;;;;;;;;5076754;27;98141;-76
2022/05/14 22:05:38;;;;;;;32.33;7.97;;;;;;;;;;5074267;27;97101;-73
2022/05/14 22:08:04;;;;;;;29.15;7.72;;;;;;;;;;5073720;27;98304;-74
2022/05/14 22:10:34;;;;;;;32.50;7.10;;;;;;;;;;5070697;27;95305;-74
2022/05/14 22:13:01;;;;;;;27.90;6.93;;;;;;;;;;5073035;27;97075;-75
2022/05/14 22:15:27;;;;;;;34.03;7.22;;;;;;;;;;5064472;27;97860;-75
2022/05/14 22:17:53;;;;;;;36.17;7.30;;;;;;;;;;5074012;27;95391;-76
2022/05/14 22:20:21;;;;;;;35.00;6.95;;;;;;;;;;5072119;27;96816;-74
2022/05/14 22:22:48;;;;;;;31.20;6.90;;;;;;;;;;5074102;27;97264;-76
2022/05/14 22:25:16;;;;;;;31.77;8.02;;;;;;;;;;5076831;27;95419;-76
2022/05/14 22:27:42;;;;;;;26.10;7.43;;;;;;;;;;5069414;27;97316;-74
2022/05/14 22:30:09;;;;;;;33.38;8.48;;;;;;;;;;5069172;27;95712;-76
2022/05/14 22:32:37;;;;;;;26.33;7.88;;;;;;;;;;5066748;27;96071;-76
2022/05/14 22:35:04;;;;;;;26.30;7.32;;;;;;;;;;5070904;27;97368;-76
2022/05/14 22:37:30;;;;;;;26.08;6.82;;;;;;;;;;5073942;27;95320;-76
2022/05/14 22:42:55;;;;;;;29.60;6.80;;;;;;;;;;5053970;27;97393;-77
2022/05/14 22:45:23;;;;;;;30.08;7.10;;;;;;;;;;5069162;27;95213;-77
2022/05/14 22:47:49;;;;;;;28.17;7.47;;;;;;;;;;5076558;27;96929;-77
2022/05/14 22:50:16;;;;;;;29.75;6.88;;;;;;;;;;5070838;27;95428;-76
2022/05/14 22:52:43;;;;;;;35.70;7.38;;;;;;;;;;5073841;27;95814;-76
2022/05/14 22:55:11;;;;;;;29.80;7.50;;;;;;;;;;5072814;27;97325;-76
2022/05/14 22:57:37;;;;;;;29.45;7.00;;;;;;;;;;5074319;27;95281;-77
2022/05/14 23:00:07;;;;;;;26.20;7.32;;;;;;;;;;5070486;27;96748;-77
2022/05/14 23:02:34;;;;;;;34.25;6.82;;;;;;;;;;5070275;27;97320;-76
2022/05/14 23:05:03;;;;;;;32.33;7.22;;;;;;;;;;5070712;27;95294;-77
2022/05/14 23:07:29;;;;;;;27.75;6.95;;;;;;;;;;5055901;27;96728;-76
2022/05/14 23:09:56;;;;;;;25.88;6.10;;;;;;;;;;5072848;27;97305;-76
2022/05/14 23:12:22;;;;;;;24.92;6.88;;;;;;;;;;5069660;27;96760;-77
2022/05/14 23:14:54;;;;;;;;;;;;;;;;;;5072979;27;97372;-77
2022/05/14 23:17:21;;;;;;;26.45;6.85;;;;;;;;;;5072739;27;118703;-77
2022/05/14 23:19:47;;;;;;;39.38;7.28;;;;;;;;;;5071806;27;96838;-76
2022/05/14 23:22:13;;;;;;;26.83;7.18;;;;;;;;;;5070528;27;97081;-76
2022/05/14 23:24:39;;;;;;;31.55;7.60;;;;;;;;;;5073500;27;95124;-77
2022/05/14 23:27:06;;;;;;;29.83;6.53;;;;;;;;;;5071124;27;97307;-78
2022/05/14 23:29:35;;;;;;;33.47;7.85;;;;;;;;;;5072513;27;97666;-77
2022/05/14 23:32:01;;;;;;;38.47;7.63;;;;;;;;;;5072326;27;97223;-77
2022/05/14 23:34:27;;;;;;;24.60;7.10;;;;;;;;;;5070979;27;97303;-77
2022/05/14 23:36:54;;;;;;;28.13;6.95;;;;;;;;;;5072679;27;95332;-75
2022/05/14 23:39:20;;;;;;;35.65;6.90;;;;;;;;;;5071050;27;97150;-75
2022/05/14 23:41:46;;;;;;;24.38;6.22;;;;;;;;;;5068747;27;97467;-77
2022/05/14 23:44:13;;;;;;;26.50;6.60;;;;;;;;;;5058981;27;95694;-76
2022/05/14 23:46:39;;;;;;;29.45;7.05;;;;;;;;;;5067635;27;96740;-74
2022/05/14 23:49:05;;;;;;;23.67;6.47;;;;;;;;;;5070581;27;99181;-75
2022/05/14 23:51:32;;;;;;;33.80;6.65;;;;;;;;;;5073825;27;96141;-76
2022/05/14 23:53:58;;;;;;;30.38;7.18;;;;;;;;;;5068905;27;97388;-77
2022/05/14 23:56:24;;;;;;;25.98;6.70;;;;;;;;;;5063366;27;95453;-76
